createdAt,value
2017-04-21T00:03:11.710Z,1025.26
2017-04-21T00:08:08.170Z,1025.21
2017-04-21T00:13:03.548Z,1024.99
2017-04-21T00:17:59.301Z,1024.96
2017-04-21T00:22:55.040Z,1024.94
2017-04-21T00:27:50.761Z,1024.79
2017-04-21T00:32:46.602Z,1024.70
2017-04-21T00:37:42.403Z,1024.68
2017-04-21T00:42:38.119Z,1024.71
2017-04-21T00:47:34.314Z,1024.63
2017-04-21T00:52:30.063Z,1024.52
2017-04-21T00:57:25.668Z,1024.51
2017-04-21T01:02:22.042Z,1024.48
2017-04-21T01:07:17.942Z,1024.49
2017-04-21T01:12:13.146Z,1024.48
2017-04-21T01:17:10.006Z,1024.42
2017-04-21T01:22:06.007Z,1024.44
2017-04-21T01:27:05.528Z,1024.41
2017-04-21T01:32:01.088Z,1024.41
2017-04-21T01:36:56.749Z,1024.30
2017-04-21T01:41:52.046Z,1024.27
2017-04-21T01:46:50.973Z,1024.24
2017-04-21T01:51:46.106Z,1024.17
2017-04-21T01:56:41.819Z,1024.20
2017-04-21T02:01:37.630Z,1024.19
2017-04-21T02:06:34.374Z,1024.09
2017-04-21T02:11:29.849Z,1024.13
2017-04-21T02:16:25.830Z,1024.06
2017-04-21T02:21:21.711Z,1024.05
2017-04-21T02:26:17.335Z,1023.86
2017-04-21T02:31:13.672Z,1023.91
2017-04-21T02:36:09.273Z,1023.88
2017-04-21T02:41:05.653Z,1023.86
2017-04-21T02:46:01.455Z,1023.78
2017-04-21T02:50:57.142Z,1023.76
2017-04-21T02:55:52.870Z,1023.79
2017-04-21T03:00:48.953Z,1023.73
2017-04-21T03:05:45.655Z,1023.65
2017-04-21T03:10:41.689Z,1023.68
2017-04-21T03:15:37.831Z,1023.63
2017-04-21T03:20:33.636Z,1023.61
2017-04-21T03:25:29.960Z,1023.62
2017-04-21T03:30:25.999Z,1023.54
2017-04-21T03:35:21.570Z,1023.58
2017-04-21T03:40:17.797Z,1023.48
2017-04-21T03:45:14.325Z,1023.45
2017-04-21T03:50:09.772Z,1023.39
2017-04-21T03:55:05.459Z,1023.39
2017-04-21T04:00:01.034Z,1023.35
2017-04-21T04:04:56.998Z,1023.33
2017-04-21T04:09:52.760Z,1023.18
2017-04-21T04:14:48.317Z,1023.19
2017-04-21T04:19:44.478Z,1023.22
2017-04-21T04:24:40.197Z,1023.22
2017-04-21T04:29:35.836Z,1023.27
2017-04-21T04:34:31.520Z,1023.21
2017-04-21T04:39:27.295Z,1023.19
2017-04-21T04:44:23.595Z,1023.27
2017-04-21T04:49:19.474Z,1023.23
2017-04-21T04:54:15.972Z,1023.24
2017-04-21T04:59:11.668Z,1023.15
2017-04-21T05:04:07.425Z,1023.14
2017-04-21T05:09:02.914Z,1023.12
2017-04-21T05:13:58.561Z,1023.20
2017-04-21T05:18:54.143Z,1023.17
2017-04-21T05:23:50.248Z,1023.20
2017-04-21T05:28:46.040Z,1023.16
2017-04-21T05:33:42.307Z,1023.16
2017-04-21T05:38:38.253Z,1023.09
2017-04-21T05:43:34.900Z,1023.06
2017-04-21T05:48:31.013Z,1023.10
2017-04-21T05:53:27.865Z,1023.23
2017-04-21T05:58:23.620Z,1023.13
2017-04-21T06:03:19.604Z,1023.09
2017-04-21T06:08:15.242Z,1023.14
2017-04-21T06:13:10.992Z,1023.11
2017-04-21T06:23:07.045Z,1023.05
2017-04-21T06:28:03.007Z,1022.95
2017-04-21T06:32:58.405Z,1023.02
2017-04-21T06:37:55.298Z,1022.93
2017-04-21T06:42:50.849Z,1023.02
2017-04-21T06:47:46.585Z,1023.02
2017-04-21T06:52:42.418Z,1022.96
2017-04-21T06:57:38.505Z,1022.87
2017-04-21T07:02:34.253Z,1022.88
2017-04-21T07:07:29.794Z,1022.87
2017-04-21T07:12:25.647Z,1022.89
2017-04-21T07:17:21.287Z,1022.84
2017-04-21T07:22:17.775Z,1022.86
2017-04-21T07:27:13.525Z,1022.86
2017-04-21T07:32:10.026Z,1022.81
2017-04-21T07:37:06.955Z,1022.76
2017-04-21T07:42:03.493Z,1022.95
2017-04-21T07:46:58.851Z,1022.74
2017-04-21T07:51:55.125Z,1022.78
2017-04-21T07:56:51.214Z,1022.86
2017-04-21T08:01:46.931Z,1022.85
2017-04-21T08:06:42.845Z,1022.77
2017-04-21T08:11:39.932Z,1022.76
2017-04-21T08:16:39.242Z,1022.75
2017-04-21T08:21:34.240Z,1022.74
2017-04-21T08:26:29.846Z,1022.76
2017-04-21T08:36:28.735Z,1022.73
2017-04-21T08:41:24.951Z,1022.62
2017-04-21T08:46:20.892Z,1022.64
2017-04-21T08:51:16.717Z,1022.73
2017-04-21T08:56:12.741Z,1022.85
2017-04-21T09:01:11.605Z,1022.72
2017-04-21T09:06:06.750Z,1022.66
2017-04-21T09:11:03.113Z,1022.63
2017-04-21T09:16:00.215Z,1022.57
2017-04-21T09:20:55.567Z,1022.50
2017-04-21T09:25:51.442Z,1022.42
2017-04-21T09:30:47.283Z,1022.28
2017-04-21T09:35:46.357Z,1022.30
2017-04-21T09:40:42.799Z,1022.17
2017-04-21T09:45:40.195Z,1022.16
2017-04-21T09:50:36.115Z,1022.32
2017-04-21T09:57:36.164Z,1022.23
2017-04-21T10:01:22.546Z,1022.16
2017-04-21T10:07:38.458Z,1022.15
2017-04-21T10:10:31.202Z,1022.11
2017-04-21T10:20:27.350Z,1022.04
2017-04-21T10:25:23.132Z,1021.90
2017-04-21T10:30:19.160Z,1021.83
2017-04-21T10:35:14.934Z,1021.82
2017-04-21T10:40:12.992Z,1021.77
2017-04-21T10:45:08.604Z,1021.62
2017-04-21T10:50:04.110Z,1021.60
2017-04-21T10:54:59.501Z,1021.65
2017-04-21T10:59:56.261Z,1021.51
2017-04-21T11:04:51.954Z,1021.57
2017-04-21T11:09:47.506Z,1021.51
2017-04-21T11:14:43.381Z,1021.43
2017-04-21T11:19:39.789Z,1021.39
2017-04-21T11:24:35.006Z,1021.34
2017-04-21T11:29:31.838Z,1021.25
2017-04-21T11:34:27.244Z,1021.14
2017-04-21T11:39:24.427Z,1021.18
2017-04-21T11:44:21.514Z,1021.10
2017-04-21T11:49:16.870Z,1021.08
2017-04-21T11:54:13.174Z,1020.99
2017-04-21T11:59:08.826Z,1020.99
2017-04-21T12:04:05.758Z,1020.97
2017-04-21T12:09:02.427Z,1020.93
2017-04-21T12:13:58.535Z,1020.87
2017-04-21T12:18:54.370Z,1020.89
2017-04-21T12:23:50.651Z,1020.91
2017-04-21T12:28:46.866Z,1020.81
2017-04-21T12:33:43.496Z,1020.74
2017-04-21T12:38:39.329Z,1020.65
2017-04-21T12:43:35.083Z,1020.63
2017-04-21T12:48:31.554Z,1020.51
2017-04-21T12:53:29.143Z,1020.58
2017-04-21T12:58:25.840Z,1020.51
2017-04-21T13:03:21.366Z,1020.35
2017-04-21T13:08:17.912Z,1020.30
2017-04-21T13:13:14.137Z,1020.33
2017-04-21T13:18:09.889Z,1020.31
2017-04-21T13:23:05.087Z,1020.22
2017-04-21T13:28:00.845Z,1020.18
2017-04-21T13:32:56.298Z,1020.06
2017-04-21T13:37:52.467Z,1020.08
2017-04-21T13:42:48.160Z,1019.93
2017-04-21T13:47:44.195Z,1020.01
2017-04-21T13:52:41.072Z,1019.87
2017-04-21T13:57:36.591Z,1019.81
2017-04-21T14:02:32.108Z,1019.69
2017-04-21T14:07:28.142Z,1019.55
2017-04-21T14:12:24.133Z,1019.47
2017-04-21T14:17:19.817Z,1019.46
2017-04-21T14:22:15.493Z,1019.41
2017-04-21T14:27:11.531Z,1019.27
2017-04-21T14:32:06.725Z,1019.24
2017-04-21T14:37:03.719Z,1019.16
2017-04-21T14:41:59.677Z,1019.08
2017-04-21T14:46:55.476Z,1018.94
2017-04-21T14:51:51.357Z,1018.91
2017-04-21T14:56:47.272Z,1018.86
2017-04-21T15:01:43.258Z,1018.86
2017-04-21T15:06:39.027Z,1018.78
2017-04-21T15:11:34.656Z,1018.58
2017-04-21T15:16:31.284Z,1018.55
2017-04-21T15:21:27.020Z,1018.59
2017-04-21T15:26:22.770Z,1018.63
2017-04-21T15:31:18.617Z,1018.54
2017-04-21T15:36:14.446Z,1018.46
2017-04-21T15:41:13.610Z,1018.50
2017-04-21T15:46:09.283Z,1018.48
2017-04-21T15:51:05.422Z,1018.40
2017-04-21T15:56:01.481Z,1018.43
2017-04-21T16:00:57.065Z,1018.47
2017-04-21T16:05:53.289Z,1018.39
2017-04-21T16:10:48.591Z,1018.46
2017-04-21T16:15:44.537Z,1018.58
2017-04-21T16:20:40.747Z,1018.58
2017-04-21T16:25:36.177Z,1018.70
2017-04-21T16:30:31.843Z,1018.75
2017-04-21T16:35:27.615Z,1018.75
2017-04-21T16:40:23.196Z,1018.63
2017-04-21T16:45:19.741Z,1018.66
2017-04-21T16:50:15.569Z,1018.58
2017-04-21T16:55:11.381Z,1018.64
2017-04-21T17:00:07.104Z,1018.51
2017-04-21T17:05:03.762Z,1018.62
2017-04-21T17:09:59.078Z,1018.52
2017-04-21T17:14:54.844Z,1018.55
2017-04-21T17:19:50.678Z,1018.42
2017-04-21T17:24:46.717Z,1018.46
2017-04-21T17:29:42.549Z,1018.46
2017-04-21T17:34:38.429Z,1018.45
2017-04-21T17:39:34.081Z,1018.49
2017-04-21T17:44:30.941Z,1018.53
2017-04-21T17:49:26.648Z,1018.45
2017-04-21T17:54:22.413Z,1018.33
2017-04-21T17:59:18.600Z,1018.40
2017-04-21T18:04:14.380Z,1018.40
2017-04-21T18:09:09.714Z,1018.40
2017-04-21T18:14:05.494Z,1018.34
2017-04-21T18:19:02.178Z,1018.46
2017-04-21T18:23:57.641Z,1018.43
2017-04-21T18:28:53.232Z,1018.40
2017-04-21T18:33:48.552Z,1018.39
2017-04-21T18:38:45.341Z,1018.37
2017-04-21T18:43:41.304Z,1018.32
2017-04-21T18:48:36.671Z,1018.29
2017-04-21T18:53:34.405Z,1018.32
2017-04-21T18:58:31.000Z,1018.47
2017-04-21T19:03:26.195Z,1018.42
2017-04-21T19:08:21.784Z,1018.42
2017-04-21T19:13:17.332Z,1018.60
2017-04-21T19:18:13.863Z,1018.56
2017-04-21T19:23:09.665Z,1018.55
2017-04-21T19:28:05.955Z,1018.53
2017-04-21T19:33:01.486Z,1018.63
2017-04-21T19:37:57.215Z,1018.63
2017-04-21T19:42:52.814Z,1018.62
2017-04-21T19:47:48.581Z,1018.62
2017-04-21T19:52:44.769Z,1018.59
2017-04-21T19:57:40.200Z,1018.63
2017-04-21T20:02:35.940Z,1018.39
2017-04-21T20:07:31.785Z,1018.33
2017-04-21T20:12:27.567Z,1018.41
2017-04-21T20:17:24.104Z,1018.46
2017-04-21T20:22:19.518Z,1018.51
2017-04-21T20:27:15.241Z,1018.32
2017-04-21T20:32:11.024Z,1018.30
2017-04-21T20:37:06.941Z,1018.23
2017-04-21T20:42:03.260Z,1018.37
2017-04-21T20:46:59.435Z,1018.21
2017-04-21T20:51:56.137Z,1018.27
2017-04-21T20:56:51.453Z,1018.17
2017-04-21T21:01:47.192Z,1018.22
2017-04-21T21:06:43.030Z,1018.14
2017-04-21T21:11:38.969Z,1018.04
2017-04-21T21:16:34.191Z,1017.95
2017-04-21T21:21:30.239Z,1017.95
2017-04-21T21:26:25.970Z,1017.87
2017-04-21T21:31:24.631Z,1017.97
2017-04-21T21:36:19.973Z,1017.94
2017-04-21T21:41:15.412Z,1017.88
2017-04-21T21:46:12.151Z,1017.86
2017-04-21T21:51:07.716Z,1017.79
2017-04-21T21:56:03.364Z,1017.75
2017-04-21T22:05:58.355Z,1017.68
2017-04-21T22:10:54.091Z,1017.72
2017-04-21T22:15:49.966Z,1017.60
2017-04-21T22:20:45.935Z,1017.48
2017-04-21T22:25:45.373Z,1017.65
2017-04-21T22:30:40.683Z,1017.60
2017-04-21T22:35:36.632Z,1017.63
2017-04-21T22:40:32.259Z,1017.60
2017-04-21T22:45:28.048Z,1017.50
2017-04-21T22:50:23.838Z,1017.52
2017-04-21T22:55:20.196Z,1017.45
2017-04-21T23:00:16.158Z,1017.47
2017-04-21T23:05:12.080Z,1017.40
2017-04-21T23:10:07.424Z,1017.38
2017-04-21T23:15:03.114Z,1017.45
2017-04-21T23:19:58.562Z,1017.47
2017-04-21T23:24:54.194Z,1017.31
2017-04-21T23:29:51.251Z,1017.27
2017-04-21T23:34:46.810Z,1017.33
2017-04-21T23:39:42.648Z,1017.23
2017-04-21T23:44:38.902Z,1017.26
2017-04-21T23:49:35.702Z,1017.17
2017-04-21T23:54:31.387Z,1017.11
2017-04-21T23:59:28.950Z,1017.03
